createdAt,value
2018-10-01T00:02:09.009Z,79.15
2018-10-01T00:04:37.800Z,79.48
2018-10-01T00:07:06.835Z,79.46
2018-10-01T00:09:35.703Z,79.26
2018-10-01T00:12:04.672Z,79.11
2018-10-01T00:14:33.536Z,78.66
2018-10-01T00:17:02.405Z,79.12
2018-10-01T00:19:36.396Z,78.97
2018-10-01T00:22:10.487Z,79.73
2018-10-01T00:24:39.418Z,79.82
2018-10-01T00:27:08.315Z,79.54
2018-10-01T00:29:37.075Z,79.86
2018-10-01T00:32:05.983Z,79.52
2018-10-01T00:34:34.750Z,79.62
2018-10-01T00:37:03.540Z,79.96
2018-10-01T00:39:32.372Z,80.31
2018-10-01T00:42:01.168Z,80.14
2018-10-01T00:44:29.983Z,80.48
2018-10-01T00:46:58.769Z,80.00
2018-10-01T00:49:27.627Z,80.04
2018-10-01T00:51:59.434Z,80.05
2018-10-01T00:54:28.339Z,80.24
2018-10-01T00:56:58.308Z,80.47
2018-10-01T00:59:27.158Z,80.40
2018-10-01T01:01:55.999Z,80.53
2018-10-01T01:04:24.795Z,80.30
2018-10-01T01:06:53.635Z,80.10
2018-10-01T01:09:22.546Z,79.47
2018-10-01T01:11:51.335Z,80.44
2018-10-01T01:14:20.302Z,80.19
2018-10-01T01:16:49.162Z,80.23
2018-10-01T01:19:17.931Z,79.88
2018-10-01T01:21:46.947Z,79.30
2018-10-01T01:24:15.780Z,79.91
2018-10-01T01:26:44.639Z,80.10
2018-10-01T01:29:13.397Z,80.07
2018-10-01T01:31:42.238Z,79.61
2018-10-01T01:34:11.547Z,79.86
2018-10-01T01:36:40.331Z,79.83
2018-10-01T01:39:10.636Z,80.07
2018-10-01T01:41:39.738Z,79.68
2018-10-01T01:44:08.900Z,79.93
2018-10-01T01:46:38.019Z,79.77
2018-10-01T01:49:06.838Z,79.08
2018-10-01T01:51:35.662Z,79.07
2018-10-01T01:54:04.635Z,80.09
2018-10-01T01:56:33.523Z,79.96
2018-10-01T01:59:02.339Z,80.02
2018-10-01T02:01:31.211Z,80.20
2018-10-01T02:04:00.060Z,79.36
2018-10-01T02:06:29.249Z,79.55
2018-10-01T02:08:58.037Z,79.85
2018-10-01T02:11:26.832Z,79.41
2018-10-01T02:13:55.753Z,79.37
2018-10-01T02:16:24.585Z,79.94
2018-10-01T02:18:53.395Z,79.54
2018-10-01T02:21:22.285Z,79.55
2018-10-01T02:23:51.118Z,80.40
2018-10-01T02:26:20.039Z,80.41
2018-10-01T02:28:48.926Z,80.06
2018-10-01T02:31:17.739Z,79.82
2018-10-01T02:33:47.152Z,80.01
2018-10-01T02:36:15.989Z,79.83
2018-10-01T02:38:44.917Z,80.53
2018-10-01T02:41:13.949Z,80.32
2018-10-01T02:43:42.795Z,79.74
2018-10-01T02:46:11.562Z,80.10
2018-10-01T02:48:40.512Z,80.13
2018-10-01T02:51:09.492Z,79.60
2018-10-01T02:53:43.561Z,79.99
2018-10-01T02:56:12.452Z,79.94
2018-10-01T02:58:41.207Z,80.05
2018-10-01T03:01:10.076Z,79.08
2018-10-01T03:03:39.868Z,79.62
2018-10-01T03:06:08.799Z,79.65
2018-10-01T03:08:37.694Z,79.72
2018-10-01T03:11:06.607Z,79.84
2018-10-01T03:13:35.463Z,80.01
2018-10-01T03:16:04.306Z,80.04
2018-10-01T03:18:33.236Z,79.96
2018-10-01T03:21:02.078Z,80.09
2018-10-01T03:23:30.846Z,79.34
2018-10-01T03:25:59.736Z,79.94
2018-10-01T03:28:28.624Z,79.72
2018-10-01T03:30:57.512Z,80.06
2018-10-01T03:33:26.594Z,79.90
2018-10-01T03:35:55.487Z,79.63
2018-10-01T03:38:24.340Z,79.70
2018-10-01T03:40:53.152Z,79.35
2018-10-01T03:43:22.074Z,79.35
2018-10-01T03:45:50.912Z,79.73
2018-10-01T03:48:19.751Z,79.76
2018-10-01T03:50:48.568Z,80.38
2018-10-01T03:53:17.637Z,79.68
2018-10-01T03:55:46.461Z,79.72
2018-10-01T03:58:15.413Z,79.53
2018-10-01T04:00:44.203Z,79.77
2018-10-01T04:03:12.968Z,80.12
2018-10-01T04:05:41.736Z,80.06
2018-10-01T04:08:10.514Z,79.89
2018-10-01T04:10:39.399Z,79.90
2018-10-01T04:13:08.188Z,79.93
2018-10-01T04:15:37.042Z,79.94
2018-10-01T04:18:05.819Z,79.33
2018-10-01T04:20:34.614Z,79.91
2018-10-01T04:23:03.776Z,79.43
2018-10-01T04:25:32.602Z,79.89
2018-10-01T04:28:01.389Z,79.99
2018-10-01T04:30:30.263Z,79.93
2018-10-01T04:32:59.095Z,79.92
2018-10-01T04:35:27.902Z,79.37
2018-10-01T04:37:56.791Z,79.34
2018-10-01T04:40:25.600Z,80.20
2018-10-01T04:42:54.463Z,80.16
2018-10-01T04:45:23.276Z,79.65
2018-10-01T04:47:52.128Z,80.40
2018-10-01T04:50:20.976Z,80.13
2018-10-01T04:52:49.812Z,79.83
2018-10-01T04:55:18.679Z,79.93
2018-10-01T04:57:47.507Z,80.27
2018-10-01T05:00:16.497Z,80.29
2018-10-01T05:02:45.346Z,80.30
2018-10-01T05:05:14.256Z,79.72
2018-10-01T05:07:43.124Z,80.45
2018-10-01T05:10:12.016Z,80.60
2018-10-01T05:12:40.905Z,80.04
2018-10-01T05:15:09.757Z,80.07
2018-10-01T05:17:38.746Z,80.13
2018-10-01T05:20:07.560Z,80.52
2018-10-01T05:22:36.486Z,80.09
2018-10-01T05:25:05.604Z,80.14
2018-10-01T05:27:34.857Z,80.19
2018-10-01T05:30:07.122Z,79.95
2018-10-01T05:32:35.971Z,80.18
2018-10-01T05:35:04.889Z,80.03
2018-10-01T05:37:33.770Z,79.80
2018-10-01T05:40:02.733Z,80.34
2018-10-01T05:42:31.520Z,80.28
2018-10-01T05:45:00.410Z,79.84
2018-10-01T05:47:29.491Z,79.44
2018-10-01T05:49:58.348Z,79.63
2018-10-01T05:52:27.337Z,79.27
2018-10-01T05:54:56.712Z,79.06
2018-10-01T05:57:25.908Z,79.07
2018-10-01T05:59:54.847Z,78.92
2018-10-01T06:02:23.756Z,77.77
2018-10-01T06:04:52.597Z,78.06
2018-10-01T06:07:21.652Z,78.00
2018-10-01T06:09:50.548Z,76.96
2018-10-01T06:12:19.444Z,77.15
2018-10-01T06:14:48.296Z,76.55
2018-10-01T06:17:17.094Z,77.49
2018-10-01T06:19:46.046Z,76.94
2018-10-01T06:22:15.043Z,76.74
2018-10-01T06:24:43.892Z,76.95
2018-10-01T06:27:12.669Z,76.65
2018-10-01T06:29:41.552Z,76.59
2018-10-01T06:32:10.356Z,75.82
2018-10-01T06:34:39.142Z,76.07
2018-10-01T06:37:08.385Z,75.26
2018-10-01T06:39:37.284Z,75.20
2018-10-01T06:42:06.229Z,74.96
2018-10-01T06:44:35.193Z,75.42
2018-10-01T06:47:04.165Z,75.52
2018-10-01T06:49:33.097Z,74.83
2018-10-01T06:52:01.997Z,74.52
2018-10-01T06:54:30.893Z,74.34
2018-10-01T06:57:00.124Z,73.71
2018-10-01T06:59:29.061Z,73.26
2018-10-01T07:01:57.856Z,74.03
2018-10-01T07:04:26.780Z,73.27
2018-10-01T07:06:55.583Z,74.04
2018-10-01T07:09:26.299Z,73.00
2018-10-01T07:11:55.292Z,73.22
2018-10-01T07:14:24.284Z,72.52
2018-10-01T07:16:53.204Z,71.70
2018-10-01T07:19:22.808Z,72.32
2018-10-01T07:21:51.614Z,72.52
2018-10-01T07:24:20.418Z,71.78
2018-10-01T07:26:49.211Z,71.13
2018-10-01T07:29:18.151Z,70.55
2018-10-01T07:31:47.039Z,70.09
2018-10-01T07:34:15.948Z,69.61
2018-10-01T07:36:44.744Z,69.25
2018-10-01T07:39:13.540Z,69.77
2018-10-01T07:41:42.491Z,67.97
2018-10-01T07:44:11.413Z,67.20
2018-10-01T07:46:40.400Z,67.33
2018-10-01T07:49:09.268Z,67.05
2018-10-01T07:51:38.148Z,65.92
2018-10-01T07:54:07.572Z,65.50
2018-10-01T07:56:36.376Z,65.40
2018-10-01T07:59:05.435Z,65.27
2018-10-01T08:01:34.323Z,64.48
2018-10-01T08:04:03.226Z,65.18
2018-10-01T08:06:32.047Z,64.37
2018-10-01T08:09:00.954Z,64.65
2018-10-01T08:11:29.915Z,65.72
2018-10-01T08:13:58.754Z,64.93
2018-10-01T08:16:27.522Z,64.91
2018-10-01T08:18:56.360Z,64.53
2018-10-01T08:21:25.156Z,64.15
2018-10-01T08:23:54.052Z,63.87
2018-10-01T08:26:22.897Z,65.55
2018-10-01T08:28:51.687Z,65.62
2018-10-01T08:31:20.551Z,64.99
2018-10-01T08:33:49.375Z,64.32
2018-10-01T08:36:18.227Z,64.18
2018-10-01T08:38:47.149Z,63.39
2018-10-01T08:41:16.124Z,64.44
2018-10-01T08:43:45.194Z,64.76
2018-10-01T08:46:14.054Z,64.54
2018-10-01T08:48:47.440Z,64.33
2018-10-01T08:51:20.535Z,64.79
2018-10-01T08:53:54.264Z,64.38
2018-10-01T08:56:23.070Z,64.22
2018-10-01T08:58:52.051Z,64.26
2018-10-01T09:01:20.895Z,64.26
2018-10-01T09:03:49.806Z,62.43
2018-10-01T09:06:18.618Z,62.30
2018-10-01T09:08:47.462Z,62.42
2018-10-01T09:11:16.307Z,61.79
2018-10-01T09:13:45.798Z,61.04
2018-10-01T09:16:14.686Z,61.50
2018-10-01T09:18:43.568Z,61.62
2018-10-01T09:21:12.482Z,61.64
2018-10-01T09:23:41.372Z,61.77
2018-10-01T09:26:10.535Z,62.25
2018-10-01T09:28:39.521Z,61.41
2018-10-01T09:31:08.395Z,61.47
2018-10-01T09:33:37.466Z,61.64
2018-10-01T09:36:06.394Z,61.42
2018-10-01T09:38:35.398Z,61.25
2018-10-01T09:41:04.508Z,60.12
2018-10-01T09:43:33.357Z,59.62
2018-10-01T09:46:02.238Z,60.11
2018-10-01T09:48:31.203Z,59.60
2018-10-01T09:51:00.141Z,58.51
2018-10-01T09:53:29.032Z,58.57
2018-10-01T09:55:57.906Z,58.26
2018-10-01T09:58:26.815Z,58.75
2018-10-01T10:01:00.729Z,58.75
2018-10-01T10:03:29.606Z,58.30
2018-10-01T10:05:58.460Z,58.71
2018-10-01T10:08:27.259Z,58.83
2018-10-01T10:10:56.327Z,57.49
2018-10-01T10:13:25.192Z,57.94
2018-10-01T10:15:54.173Z,58.44
2018-10-01T10:18:23.061Z,58.93
2018-10-01T10:20:52.118Z,59.33
2018-10-01T10:23:20.893Z,60.26
2018-10-01T10:25:49.708Z,59.43
2018-10-01T10:28:18.601Z,59.26
2018-10-01T10:30:47.492Z,58.54
2018-10-01T10:33:16.353Z,59.12
2018-10-01T10:35:45.464Z,59.21
2018-10-01T10:38:14.350Z,57.63
2018-10-01T10:40:43.263Z,57.52
2018-10-01T10:43:12.188Z,57.58
2018-10-01T10:45:41.098Z,57.98
2018-10-01T10:48:09.979Z,57.49
2018-10-01T10:50:39.096Z,56.91
2018-10-01T10:53:08.115Z,57.61
2018-10-01T10:55:36.955Z,57.32
2018-10-01T10:58:05.896Z,57.32
2018-10-01T11:00:34.770Z,56.76
2018-10-01T11:03:03.693Z,56.53
2018-10-01T11:05:32.680Z,57.09
2018-10-01T11:08:01.544Z,56.93
2018-10-01T11:10:30.561Z,56.33
2018-10-01T11:12:59.451Z,57.19
2018-10-01T11:15:28.276Z,57.17
2018-10-01T11:17:57.289Z,57.44
2018-10-01T11:20:26.490Z,57.08
2018-10-01T11:22:55.182Z,57.33
2018-10-01T11:25:24.315Z,57.66
2018-10-01T11:27:53.433Z,58.08
2018-10-01T11:30:22.418Z,57.29
2018-10-01T11:32:51.272Z,57.85
2018-10-01T11:35:20.411Z,57.63
2018-10-01T11:37:49.194Z,57.06
2018-10-01T11:40:18.040Z,56.72
2018-10-01T11:42:46.912Z,57.77
2018-10-01T11:45:15.779Z,56.80
2018-10-01T11:47:44.729Z,56.85
2018-10-01T11:50:13.690Z,57.21
2018-10-01T11:52:42.630Z,58.21
2018-10-01T11:55:11.501Z,58.41
2018-10-01T11:57:41.099Z,58.54
2018-10-01T12:00:11.103Z,57.08
2018-10-01T12:02:39.909Z,57.73
2018-10-01T12:05:09.165Z,58.00
2018-10-01T12:07:38.867Z,57.58
2018-10-01T12:10:07.785Z,57.60
2018-10-01T12:12:36.733Z,56.00
2018-10-01T12:15:05.992Z,55.42
2018-10-01T12:17:35.043Z,55.45
2018-10-01T12:20:04.247Z,55.21
2018-10-01T12:22:33.253Z,55.79
2018-10-01T12:25:02.201Z,56.03
2018-10-01T12:27:31.122Z,56.19
2018-10-01T12:30:00.112Z,56.55
2018-10-01T12:32:29.013Z,56.34
2018-10-01T12:34:58.028Z,56.01
2018-10-01T12:37:26.972Z,56.47
2018-10-01T12:39:55.735Z,56.46
2018-10-01T12:42:24.561Z,56.85
2018-10-01T12:44:53.353Z,56.76
2018-10-01T12:47:22.172Z,56.18
2018-10-01T12:49:50.963Z,56.63
2018-10-01T12:52:20.014Z,57.32
2018-10-01T12:54:48.904Z,57.53
2018-10-01T12:57:17.895Z,57.47
2018-10-01T12:59:46.796Z,57.20
2018-10-01T13:02:15.624Z,57.22
2018-10-01T13:04:44.544Z,56.89
2018-10-01T13:07:13.347Z,57.20
2018-10-01T13:09:42.197Z,57.62
2018-10-01T13:12:10.998Z,57.59
2018-10-01T13:14:40.578Z,57.04
2018-10-01T13:17:09.393Z,57.60
2018-10-01T13:19:38.333Z,57.59
2018-10-01T13:22:07.965Z,57.85
2018-10-01T13:24:36.949Z,57.09
2018-10-01T13:27:06.302Z,56.99
2018-10-01T13:29:35.373Z,56.86
2018-10-01T13:32:04.284Z,57.89
2018-10-01T13:34:33.315Z,57.78
2018-10-01T13:37:02.155Z,57.78
2018-10-01T13:39:30.940Z,58.32
2018-10-01T13:41:59.832Z,58.35
2018-10-01T13:44:28.827Z,58.51
2018-10-01T13:46:57.983Z,58.64
2018-10-01T13:49:26.862Z,58.14
2018-10-01T13:51:55.708Z,57.71
2018-10-01T13:54:24.624Z,58.59
2018-10-01T13:56:53.754Z,58.32
2018-10-01T13:59:22.688Z,58.03
2018-10-01T14:01:51.821Z,58.87
2018-10-01T14:04:20.848Z,58.79
2018-10-01T14:06:49.686Z,58.92
2018-10-01T14:09:18.741Z,59.63
2018-10-01T14:11:47.663Z,59.59
2018-10-01T14:14:17.175Z,59.47
2018-10-01T14:16:46.072Z,59.12
2018-10-01T14:19:15.320Z,59.56
2018-10-01T14:21:44.422Z,59.92
2018-10-01T14:24:13.546Z,59.91
2018-10-01T14:26:42.381Z,60.56
2018-10-01T14:29:11.592Z,59.96
2018-10-01T14:31:40.741Z,59.84
2018-10-01T14:34:10.256Z,60.81
2018-10-01T14:36:40.351Z,60.13
2018-10-01T14:39:10.307Z,60.32
2018-10-01T14:41:39.877Z,60.06
2018-10-01T14:44:09.875Z,60.88
2018-10-01T14:46:38.849Z,61.10
2018-10-01T14:49:07.763Z,61.74
2018-10-01T14:51:36.636Z,61.76
2018-10-01T14:54:05.469Z,61.61
2018-10-01T14:56:34.558Z,62.58
2018-10-01T14:59:03.544Z,62.50
2018-10-01T15:01:32.481Z,62.10
2018-10-01T15:04:01.300Z,62.23
2018-10-01T15:06:30.338Z,62.27
2018-10-01T15:08:59.251Z,62.34
2018-10-01T15:11:28.112Z,62.96
2018-10-01T15:13:59.004Z,63.60
2018-10-01T15:16:27.822Z,63.71
2018-10-01T15:18:56.699Z,63.26
2018-10-01T15:21:25.584Z,63.39
2018-10-01T15:23:54.520Z,64.16
2018-10-01T15:26:23.448Z,64.48
2018-10-01T15:28:52.424Z,65.16
2018-10-01T15:31:21.205Z,64.67
2018-10-01T15:33:50.099Z,64.68
2018-10-01T15:36:18.955Z,65.49
2018-10-01T15:38:48.009Z,65.23
2018-10-01T15:41:16.904Z,65.93
2018-10-01T15:43:45.745Z,65.70
2018-10-01T15:46:14.622Z,66.68
2018-10-01T15:48:43.482Z,66.41
2018-10-01T15:51:12.285Z,66.26
2018-10-01T15:53:41.305Z,67.15
2018-10-01T15:56:10.206Z,66.97
2018-10-01T15:58:39.133Z,67.74
2018-10-01T16:01:08.048Z,67.67
2018-10-01T16:03:36.936Z,67.72
2018-10-01T16:06:05.924Z,68.29
2018-10-01T16:08:34.740Z,68.11
2018-10-01T16:11:03.690Z,67.96
2018-10-01T16:13:32.693Z,69.09
2018-10-01T16:16:01.537Z,69.04
2018-10-01T16:18:30.345Z,69.31
2018-10-01T16:20:59.157Z,69.50
2018-10-01T16:23:27.972Z,69.29
2018-10-01T16:25:56.849Z,69.76
2018-10-01T16:28:25.959Z,69.19
2018-10-01T16:30:54.836Z,69.29
2018-10-01T16:33:23.644Z,69.67
2018-10-01T16:35:52.521Z,70.47
2018-10-01T16:38:21.380Z,70.32
2018-10-01T16:40:50.513Z,69.37
2018-10-01T16:43:19.707Z,69.93
2018-10-01T16:45:48.772Z,69.84
2018-10-01T16:48:17.773Z,69.26
2018-10-01T16:50:46.630Z,70.08
2018-10-01T16:53:15.689Z,70.14
2018-10-01T16:55:44.562Z,69.89
2018-10-01T16:58:13.414Z,70.33
2018-10-01T17:00:42.470Z,69.39
2018-10-01T17:03:11.383Z,70.20
2018-10-01T17:05:40.305Z,69.10
2018-10-01T17:08:09.160Z,69.39
2018-10-01T17:10:38.028Z,69.67
2018-10-01T17:13:07.014Z,70.52
2018-10-01T17:15:36.306Z,70.25
2018-10-01T17:18:05.225Z,70.49
2018-10-01T17:20:34.107Z,70.90
2018-10-01T17:23:03.041Z,70.64
2018-10-01T17:25:31.931Z,70.95
2018-10-01T17:28:00.815Z,70.56
2018-10-01T17:30:30.859Z,70.64
2018-10-01T17:32:59.752Z,69.82
2018-10-01T17:35:28.587Z,69.54
2018-10-01T17:37:57.611Z,70.32
2018-10-01T17:40:26.556Z,70.49
2018-10-01T17:42:55.427Z,70.41
2018-10-01T17:45:24.216Z,70.36
2018-10-01T17:47:53.123Z,71.06
2018-10-01T17:50:22.073Z,70.54
2018-10-01T17:52:51.244Z,70.64
2018-10-01T17:55:20.074Z,70.38
2018-10-01T17:57:48.970Z,70.61
2018-10-01T18:00:19.977Z,70.94
2018-10-01T18:02:49.156Z,71.08
2018-10-01T18:05:18.108Z,71.25
2018-10-01T18:07:46.937Z,71.44
2018-10-01T18:10:15.753Z,71.74
2018-10-01T18:12:44.627Z,71.74
2018-10-01T18:15:13.460Z,70.85
2018-10-01T18:17:42.493Z,71.18
2018-10-01T18:20:11.356Z,71.25
2018-10-01T18:22:40.281Z,71.85
2018-10-01T18:25:09.291Z,71.22
2018-10-01T18:27:38.309Z,71.23
2018-10-01T18:30:08.520Z,71.14
2018-10-01T18:32:37.482Z,71.33
2018-10-01T18:35:07.216Z,71.48
2018-10-01T18:37:36.187Z,71.02
2018-10-01T18:40:07.446Z,71.14
2018-10-01T18:42:36.258Z,71.05
2018-10-01T18:45:12.161Z,70.85
2018-10-01T18:47:41.348Z,70.57
2018-10-01T18:50:10.617Z,70.96
2018-10-01T18:52:39.529Z,71.19
2018-10-01T18:55:09.057Z,72.67
2018-10-01T18:57:37.892Z,72.01
2018-10-01T19:00:08.361Z,72.10
2018-10-01T19:02:37.457Z,73.05
2018-10-01T19:05:07.269Z,72.14
2018-10-01T19:07:36.210Z,71.76
2018-10-01T19:10:05.852Z,72.07
2018-10-01T19:12:34.693Z,72.62
2018-10-01T19:15:03.744Z,72.41
2018-10-01T19:17:32.733Z,72.48
2018-10-01T19:20:01.577Z,71.98
2018-10-01T19:22:30.448Z,71.92
2018-10-01T19:24:59.305Z,72.11
2018-10-01T19:27:28.289Z,72.81
2018-10-01T19:29:57.199Z,73.19
2018-10-01T19:32:26.444Z,73.59
2018-10-01T19:34:55.272Z,73.90
2018-10-01T19:37:24.302Z,74.49
2018-10-01T19:39:53.371Z,74.29
2018-10-01T19:42:22.250Z,74.47
2018-10-01T19:44:51.158Z,74.24
2018-10-01T19:47:20.167Z,74.19
2018-10-01T19:49:49.120Z,73.85
2018-10-01T19:52:17.973Z,73.94
2018-10-01T19:54:46.781Z,73.72
2018-10-01T19:57:15.672Z,74.39
2018-10-01T19:59:44.812Z,74.27
2018-10-01T20:02:13.691Z,74.71
2018-10-01T20:04:42.568Z,74.91
2018-10-01T20:07:11.644Z,75.12
2018-10-01T20:09:43.446Z,74.69
2018-10-01T20:12:13.356Z,75.34
2018-10-01T20:14:42.741Z,74.91
2018-10-01T20:17:11.938Z,75.42
2018-10-01T20:19:41.146Z,75.34
2018-10-01T20:22:12.191Z,75.74
2018-10-01T20:24:41.420Z,74.88
2018-10-01T20:27:10.613Z,75.27
2018-10-01T20:29:40.089Z,75.70
2018-10-01T20:32:09.067Z,75.99
2018-10-01T20:34:37.860Z,75.48
2018-10-01T20:37:06.917Z,76.09
2018-10-01T20:39:35.808Z,76.09
2018-10-01T20:42:04.733Z,75.98
2018-10-01T20:44:33.658Z,75.47
2018-10-01T20:47:02.525Z,76.08
2018-10-01T20:49:31.476Z,75.55
2018-10-01T20:52:00.303Z,75.64
2018-10-01T20:54:29.292Z,75.69
2018-10-01T20:56:58.782Z,75.55
2018-10-01T20:59:27.671Z,76.09
2018-10-01T21:01:56.565Z,75.42
2018-10-01T21:04:25.357Z,76.27
2018-10-01T21:06:54.213Z,76.09
2018-10-01T21:09:23.009Z,75.86
2018-10-01T21:11:51.781Z,75.81
2018-10-01T21:14:20.632Z,76.00
2018-10-01T21:16:49.764Z,76.00
2018-10-01T21:19:18.609Z,75.43
2018-10-01T21:21:47.515Z,75.35
2018-10-01T21:24:16.342Z,74.56
2018-10-01T21:26:45.138Z,75.30
2018-10-01T21:29:13.979Z,75.39
2018-10-01T21:31:42.790Z,74.42
2018-10-01T21:34:11.795Z,75.23
2018-10-01T21:36:40.788Z,75.00
2018-10-01T21:39:11.517Z,74.94
2018-10-01T21:41:40.364Z,74.61
2018-10-01T21:44:09.228Z,75.67
2018-10-01T21:46:38.187Z,75.13
2018-10-01T21:49:07.051Z,75.78
2018-10-01T21:51:35.975Z,75.64
2018-10-01T21:54:04.879Z,75.33
2018-10-01T21:56:33.748Z,74.84
2018-10-01T21:59:02.550Z,74.74
2018-10-01T22:01:36.451Z,75.51
2018-10-01T22:04:05.578Z,75.49
2018-10-01T22:06:34.484Z,75.54
2018-10-01T22:09:03.564Z,75.33
2018-10-01T22:11:32.464Z,75.24
2018-10-01T22:14:01.365Z,75.83
2018-10-01T22:16:30.231Z,75.83
2018-10-01T22:18:59.202Z,75.29
2018-10-01T22:21:28.016Z,75.74
2018-10-01T22:23:56.889Z,75.50
2018-10-01T22:26:25.733Z,75.56
2018-10-01T22:28:54.637Z,76.10
2018-10-01T22:31:23.460Z,76.38
2018-10-01T22:33:52.247Z,75.52
2018-10-01T22:36:21.011Z,76.59
2018-10-01T22:38:49.856Z,76.19
2018-10-01T22:41:18.744Z,76.12
2018-10-01T22:43:47.574Z,76.30
2018-10-01T22:46:16.489Z,76.08
2018-10-01T22:48:45.312Z,76.08
2018-10-01T22:51:14.233Z,75.95
2018-10-01T22:53:43.088Z,77.03
2018-10-01T22:56:11.909Z,76.42
2018-10-01T22:58:40.785Z,76.20
2018-10-01T23:01:09.746Z,75.86
2018-10-01T23:03:38.625Z,76.20
2018-10-01T23:06:07.693Z,75.93
2018-10-01T23:08:36.517Z,76.92
2018-10-01T23:11:05.373Z,76.97
2018-10-01T23:13:34.191Z,77.38
2018-10-01T23:16:03.017Z,76.53
2018-10-01T23:18:32.017Z,76.48
2018-10-01T23:21:00.791Z,76.40
2018-10-01T23:23:29.927Z,76.75
2018-10-01T23:25:58.887Z,77.50
2018-10-01T23:28:27.708Z,77.82
2018-10-01T23:30:56.654Z,77.20
2018-10-01T23:33:25.443Z,77.56
2018-10-01T23:35:54.231Z,77.34
2018-10-01T23:38:23.137Z,77.60
2018-10-01T23:40:52.169Z,77.55
2018-10-01T23:43:20.948Z,77.38
2018-10-01T23:45:49.778Z,77.69
2018-10-01T23:48:18.657Z,77.27
2018-10-01T23:50:47.477Z,77.24
2018-10-01T23:53:16.382Z,77.24
2018-10-01T23:55:45.320Z,77.12
2018-10-01T23:58:14.096Z,77.23
